Time;durP1;ratioP1;P1;durP2;ratioP2;P2;SDS_P1;SDS_P2;PMS_P1;PMS_P2;Temp;Humidity;BMP_temperature;BMP_pressure;BME280_temperature;BME280_humidity;BME280_pressure;Samples;Min_cycle;Max_cycle;Signal;HPM_P1;HPM_P2
2023/12/13 00:00:10;;;;;;;29.45;13.43;;;7.70;99.90;;;;;;4954925;29;20056;-88
2023/12/13 00:02:37;;;;;;;26.80;12.98;;;7.20;99.90;;;;;;4942882;29;20047;-88
2023/12/13 00:05:05;;;;;;;29.65;12.93;;;7.20;99.90;;;;;;4949272;29;20119;-88
2023/12/13 00:07:32;;;;;;;41.35;15.75;;;7.20;99.90;;;;;;4950846;29;20066;-88
2023/12/13 00:09:58;;;;;;;41.63;13.63;;;8.10;99.90;;;;;;4945950;29;20571;-88
2023/12/13 00:12:25;;;;;;;32.20;12.60;;;7.20;99.90;;;;;;4956369;29;20048;-88
2023/12/13 00:14:52;;;;;;;29.90;12.68;;;7.20;99.90;;;;;;4948321;29;20044;-88
2023/12/13 00:17:20;;;;;;;31.48;12.20;;;8.10;99.90;;;;;;4950434;29;20518;-87
2023/12/13 00:19:47;;;;;;;27.33;12.75;;;7.40;99.90;;;;;;4954834;29;20036;-88
2023/12/13 00:22:13;;;;;;;32.53;13.30;;;7.20;99.90;;;;;;4954518;29;20044;-88
2023/12/13 00:24:40;;;;;;;27.77;11.82;;;7.50;99.90;;;;;;4955700;29;20452;-88
2023/12/13 00:27:07;;;;;;;25.25;12.40;;;7.20;99.90;;;;;;4954671;29;20043;-88
2023/12/13 00:29:33;;;;;;;27.20;12.23;;;7.20;99.90;;;;;;4949784;29;20102;-87
2023/12/13 00:32:00;;;;;;;31.80;12.77;;;7.80;99.90;;;;;;4946393;29;20036;-88
2023/12/13 00:34:27;;;;;;;29.30;12.05;;;8.20;99.90;;;;;;4942146;29;20040;-88
2023/12/13 00:36:53;;;;;;;31.42;12.05;;;7.10;99.90;;;;;;4954316;29;20408;-88
2023/12/13 00:39:20;;;;;;;26.58;12.35;;;7.40;99.90;;;;;;4948974;29;20719;-88
2023/12/13 00:41:46;;;;;;;28.90;12.15;;;7.10;99.90;;;;;;4947573;29;20126;-88
2023/12/13 00:44:13;;;;;;;35.63;12.45;;;8.20;99.90;;;;;;4954077;29;20515;-88
2023/12/13 00:46:39;;;;;;;25.50;11.48;;;7.10;99.90;;;;;;4941716;29;20083;-88
2023/12/13 00:49:06;;;;;;;27.35;13.23;;;8.10;99.90;;;;;;4952363;29;20035;-88
2023/12/13 00:51:33;;;;;;;23.27;11.55;;;7.80;99.90;;;;;;4957028;29;20180;-88
2023/12/13 00:54:00;;;;;;;22.92;11.65;;;7.10;99.90;;;;;;4935138;29;20128;-88
2023/12/13 00:56:30;;;;;;;22.02;11.90;;;7.40;99.90;;;;;;4941656;29;20094;-88
2023/12/13 00:58:56;;;;;;;26.63;12.10;;;7.60;99.90;;;;;;4946273;29;20130;-88
2023/12/13 01:01:24;;;;;;;26.60;12.15;;;7.90;99.90;;;;;;4953046;29;20084;-88
2023/12/13 01:03:50;;;;;;;26.80;12.13;;;8.00;99.90;;;;;;4945304;29;20721;-88
2023/12/13 01:06:17;;;;;;;23.42;12.32;;;7.10;99.90;;;;;;4950463;29;20047;-88
2023/12/13 01:08:43;;;;;;;27.15;12.75;;;7.10;99.90;;;;;;4944902;29;20511;-88
2023/12/13 01:11:10;;;;;;;26.75;12.75;;;8.00;99.90;;;;;;4952939;29;20054;-87
2023/12/13 01:13:38;;;;;;;24.80;13.18;;;7.10;99.90;;;;;;4951137;29;20143;-87
2023/12/13 01:16:05;;;;;;;26.83;13.30;;;7.30;99.90;;;;;;4952255;29;20039;-87
2023/12/13 01:18:31;;;;;;;28.70;12.70;;;7.10;99.90;;;;;;4934798;29;20046;-88
2023/12/13 01:20:58;;;;;;;30.38;13.32;;;7.10;99.90;;;;;;4947456;29;20082;-88
2023/12/13 01:23:27;;;;;;;26.35;13.70;;;7.90;99.90;;;;;;4941825;29;20160;-88
2023/12/13 01:25:53;;;;;;;29.85;13.18;;;7.10;99.90;;;;;;4942253;29;20039;-88
2023/12/13 01:28:20;;;;;;;30.83;13.70;;;7.70;99.90;;;;;;4954156;29;20776;-88
2023/12/13 01:30:47;;;;;;;30.40;14.48;;;8.30;99.90;;;;;;4941243;29;20497;-88
2023/12/13 01:33:13;;;;;;;38.17;14.02;;;7.10;99.90;;;;;;4953714;29;20131;-88
2023/12/13 01:35:40;;;;;;;34.45;14.27;;;7.10;99.90;;;;;;4953360;29;20818;-88
2023/12/13 01:38:07;;;;;;;30.40;13.63;;;7.10;99.90;;;;;;4953436;29;20127;-88
2023/12/13 01:40:33;;;;;;;34.83;14.50;;;7.50;99.90;;;;;;4951251;29;20044;-88
2023/12/13 01:43:00;;;;;;;31.98;14.90;;;8.10;99.90;;;;;;4952651;29;20052;-88
2023/12/13 01:45:27;;;;;;;36.30;15.57;;;7.70;99.90;;;;;;4947917;29;20055;-88
2023/12/13 01:47:54;;;;;;;33.88;15.52;;;7.20;99.90;;;;;;4919563;29;20040;-88
2023/12/13 01:50:24;;;;;;;32.17;14.98;;;7.20;99.90;;;;;;4951786;29;20102;-87
2023/12/13 01:52:52;;;;;;;38.90;14.82;;;7.90;99.90;;;;;;4945296;29;20744;-88
2023/12/13 01:55:18;;;;;;;34.63;15.18;;;8.00;99.90;;;;;;4948832;29;20045;-88
2023/12/13 01:57:48;;;;;;;36.08;15.55;;;7.20;99.90;;;;;;4920313;29;20044;-88
2023/12/13 02:00:16;;;;;;;44.10;16.25;;;8.00;99.90;;;;;;4956638;29;20051;-88
2023/12/13 02:02:42;;;;;;;31.85;15.15;;;7.20;99.90;;;;;;4969595;29;20047;-88
2023/12/13 02:05:12;;;;;;;39.95;17.00;;;7.20;99.90;;;;;;4947450;29;20561;-88
2023/12/13 02:07:39;;;;;;;36.00;16.25;;;7.20;99.90;;;;;;4950319;29;20107;-88
2023/12/13 02:10:07;;;;;;;35.85;16.23;;;7.30;99.90;;;;;;4942595;29;20051;-88
2023/12/13 02:12:34;;;;;;;38.60;16.30;;;7.20;99.90;;;;;;4944161;29;20058;-88
2023/12/13 02:15:01;;;;;;;36.63;16.42;;;8.20;99.90;;;;;;4950696;29;20087;-88
2023/12/13 02:17:27;;;;;;;45.88;17.98;;;7.30;99.90;;;;;;4938487;29;20041;-89
2023/12/13 02:19:54;;;;;;;35.22;15.98;;;7.30;99.90;;;;;;4972994;29;20480;-88
2023/12/13 02:22:21;;;;;;;38.08;16.02;;;7.30;99.90;;;;;;4957137;29;20082;-88
2023/12/13 02:24:49;;;;;;;36.70;16.80;;;8.00;99.90;;;;;;4944720;29;20040;-89
2023/12/13 02:27:17;;;;;;;34.03;15.45;;;7.30;99.90;;;;;;4956686;29;20048;-88
2023/12/13 02:29:47;;;;;;;35.92;16.27;;;7.30;99.90;;;;;;4970000;29;20058;-88
2023/12/13 02:32:14;;;;;;;37.15;15.70;;;7.30;99.90;;;;;;4956939;29;20396;-88
2023/12/13 02:34:41;;;;;;;39.40;16.85;;;7.30;99.90;;;;;;4950867;29;20036;-88
2023/12/13 02:37:08;;;;;;;38.78;16.20;;;7.30;99.90;;;;;;4966784;29;20511;-88
2023/12/13 02:39:35;;;;;;;34.92;16.20;;;7.30;99.90;;;;;;4953659;29;20040;-88
2023/12/13 02:42:02;;;;;;;37.35;15.98;;;8.10;99.90;;;;;;4956582;29;20040;-88
2023/12/13 02:44:29;;;;;;;55.72;18.27;;;7.30;99.90;;;;;;4951711;29;20074;-88
2023/12/13 02:46:57;;;;;;;41.78;16.05;;;7.30;99.90;;;;;;4971150;29;20055;-88
2023/12/13 02:49:24;;;;;;;48.63;17.02;;;7.30;99.90;;;;;;4951823;29;20035;-88
2023/12/13 02:51:51;;;;;;;33.55;15.27;;;7.20;99.90;;;;;;4956731;29;20055;-87
2023/12/13 02:54:18;;;;;;;39.63;16.20;;;7.30;99.90;;;;;;4947324;29;20080;-88
2023/12/13 02:56:44;;;;;;;36.05;16.02;;;7.20;99.90;;;;;;4954151;29;20046;-88
2023/12/13 02:59:11;;;;;;;51.35;16.90;;;7.20;99.90;;;;;;4956651;29;20087;-88
2023/12/13 03:01:38;;;;;;;45.50;16.50;;;7.20;99.90;;;;;;4956751;29;20044;-88
2023/12/13 03:04:04;;;;;;;36.97;15.73;;;7.20;99.90;;;;;;4957054;29;20075;-88
2023/12/13 03:06:31;;;;;;;39.47;15.52;;;7.20;99.90;;;;;;4972887;29;20035;-89
2023/12/13 03:08:58;;;;;;;34.63;15.35;;;7.20;99.90;;;;;;4972278;29;20043;-88
2023/12/13 03:11:25;;;;;;;31.38;15.38;;;7.70;99.90;;;;;;4943181;29;20047;-87
2023/12/13 03:13:51;;;;;;;31.63;14.77;;;7.10;99.90;;;;;;4956442;29;20051;-88
2023/12/13 03:16:18;;;;;;;33.75;15.57;;;7.10;99.90;;;;;;4943628;29;20039;-88
2023/12/13 03:18:45;;;;;;;35.30;15.25;;;8.00;99.90;;;;;;4953915;29;20510;-88
2023/12/13 03:21:11;;;;;;;45.75;16.08;;;7.10;99.90;;;;;;4954244;29;20488;-88
2023/12/13 03:23:38;;;;;;;35.90;16.05;;;7.60;99.90;;;;;;4961064;29;20106;-88
2023/12/13 03:26:05;;;;;;;29.73;14.88;;;8.20;99.90;;;;;;4956381;29;20082;-88
2023/12/13 03:28:32;;;;;;;37.55;15.80;;;7.10;99.90;;;;;;4956113;29;20089;-88
2023/12/13 03:30:58;;;;;;;38.85;14.85;;;8.30;99.90;;;;;;4952835;29;20043;-88
2023/12/13 03:33:25;;;;;;;34.47;15.07;;;8.10;99.90;;;;;;4947854;29;20043;-88
2023/12/13 03:35:51;;;;;;;34.15;14.93;;;7.10;99.90;;;;;;4943519;29;20496;-88
2023/12/13 03:38:18;;;;;;;35.20;15.07;;;7.10;99.90;;;;;;4945500;29;20044;-87
2023/12/13 03:40:45;;;;;;;45.13;15.43;;;7.10;99.90;;;;;;4954137;29;20464;-88
2023/12/13 03:43:12;;;;;;;38.90;15.13;;;7.10;99.90;;;;;;4969294;29;20052;-89
2023/12/13 03:45:38;;;;;;;37.25;14.93;;;7.10;99.90;;;;;;4940038;29;20036;-89
2023/12/13 03:48:05;;;;;;;40.50;16.25;;;8.10;99.90;;;;;;4956192;29;20047;-89
2023/12/13 03:50:31;;;;;;;27.10;13.60;;;7.10;99.90;;;;;;4950278;29;20039;-88
2023/12/13 03:52:58;;;;;;;36.17;15.07;;;7.80;99.90;;;;;;4948394;29;20551;-89
2023/12/13 03:55:25;;;;;;;40.08;15.70;;;7.10;99.90;;;;;;4955746;29;20159;-88
2023/12/13 03:57:51;;;;;;;32.42;14.88;;;7.10;99.90;;;;;;4955875;29;20051;-89
2023/12/13 04:00:18;;;;;;;67.15;16.02;;;8.00;99.90;;;;;;4955578;29;20059;-89
2023/12/13 04:02:45;;;;;;;41.35;14.90;;;7.20;99.90;;;;;;4971941;29;20047;-89
2023/12/13 04:05:11;;;;;;;39.33;15.40;;;8.00;99.90;;;;;;4948665;29;20056;-88
2023/12/13 04:07:38;;;;;;;36.15;15.52;;;7.30;99.90;;;;;;4949087;29;20050;-88
2023/12/13 04:10:05;;;;;;;37.38;15.30;;;7.20;99.90;;;;;;4967289;29;20090;-89
2023/12/13 04:12:32;;;;;;;40.08;15.27;;;7.00;99.90;;;;;;4943884;29;20036;-89
2023/12/13 04:14:59;;;;;;;44.08;16.20;;;7.50;99.90;;;;;;4954684;29;20040;-89
2023/12/13 04:17:25;;;;;;;38.85;15.88;;;7.10;99.90;;;;;;4949465;29;20040;-89
2023/12/13 04:19:54;;;;;;;36.17;15.20;;;8.00;99.90;;;;;;4955564;29;20039;-89
2023/12/13 04:22:21;;;;;;;42.47;16.95;;;7.70;99.90;;;;;;4955429;29;20079;-89
2023/12/13 04:24:47;;;;;;;43.25;15.93;;;7.40;99.90;;;;;;4938304;29;20862;-89
2023/12/13 04:27:15;;;;;;;40.55;15.88;;;7.20;99.90;;;;;;4971173;29;20051;-88
2023/12/13 04:29:41;;;;;;;44.92;16.63;;;7.50;99.90;;;;;;4942653;29;20095;-89
2023/12/13 04:32:09;;;;;;;42.75;16.23;;;7.10;99.90;;;;;;4955380;29;20488;-89
2023/12/13 04:34:35;;;;;;;56.85;17.52;;;7.10;99.90;;;;;;4954607;29;20044;-89
2023/12/13 04:37:02;;;;;;;36.65;15.75;;;7.10;99.90;;;;;;4942111;29;20457;-89
2023/12/13 04:39:29;;;;;;;41.17;15.82;;;7.10;99.90;;;;;;4954819;29;20138;-89
2023/12/13 04:41:55;;;;;;;35.90;15.50;;;7.90;99.90;;;;;;4942728;29;20496;-90
2023/12/13 04:44:27;;;;;;;38.47;15.60;;;7.60;99.90;;;;;;4955264;29;20404;-89
2023/12/13 04:46:55;;;;;;;38.00;15.80;;;8.10;99.90;;;;;;4940624;29;20139;-90
2023/12/13 04:49:21;;;;;;;35.88;15.20;;;8.20;99.90;;;;;;4943796;29;20409;-89
2023/12/13 04:51:48;;;;;;;38.95;15.85;;;7.90;99.90;;;;;;4950924;29;20051;-90
2023/12/13 04:54:15;;;;;;;75.28;17.80;;;7.20;99.90;;;;;;4954931;29;20039;-89
2023/12/13 04:56:43;;;;;;;52.47;17.35;;;8.00;99.90;;;;;;4954432;29;20055;-90
2023/12/13 04:59:09;;;;;;;37.17;16.02;;;7.10;99.90;;;;;;4970472;29;20110;-90
2023/12/13 05:01:37;;;;;;;35.55;15.50;;;7.90;99.90;;;;;;4950660;29;20080;-89
2023/12/13 05:04:03;;;;;;;35.40;15.88;;;8.10;99.90;;;;;;4940332;29;20044;-89
2023/12/13 05:06:30;;;;;;;42.90;16.27;;;7.20;99.90;;;;;;4949290;29;20040;-90
2023/12/13 05:08:57;;;;;;;34.05;15.70;;;7.20;99.90;;;;;;4954565;29;20047;-89
2023/12/13 05:11:23;;;;;;;42.25;15.82;;;7.70;99.90;;;;;;4945512;29;20039;-89
2023/12/13 05:13:50;;;;;;;34.80;15.50;;;7.20;99.90;;;;;;4968353;29;20036;-90
2023/12/13 05:16:17;;;;;;;34.65;14.82;;;;;;;;;;4954616;29;20054;-90
2023/12/13 05:18:44;;;;;;;46.03;15.18;;;7.20;99.90;;;;;;4954100;29;20404;-90
2023/12/13 05:21:10;;;;;;;36.67;15.00;;;7.90;99.90;;;;;;4952647;29;20051;-89
2023/12/13 05:23:37;;;;;;;33.22;14.85;;;8.20;99.90;;;;;;4944101;29;20086;-90
2023/12/13 05:26:04;;;;;;;33.30;14.23;;;7.50;99.90;;;;;;4941987;29;20044;-90
2023/12/13 05:28:31;;;;;;;36.83;14.48;;;7.20;99.90;;;;;;4954243;29;20054;-90
2023/12/13 05:30:58;;;;;;;36.25;14.43;;;7.20;99.90;;;;;;4954446;29;20524;-90
2023/12/13 05:33:26;;;;;;;37.55;14.68;;;7.80;99.90;;;;;;4953974;29;20118;-90
2023/12/13 05:35:52;;;;;;;35.72;14.55;;;7.30;99.90;;;;;;4954376;29;20093;-89
2023/12/13 05:38:19;;;;;;;33.58;15.40;;;7.20;99.90;;;;;;4954347;29;20036;-89
2023/12/13 05:40:45;;;;;;;43.92;15.63;;;7.40;99.90;;;;;;4954366;29;20495;-90
2023/12/13 05:43:12;;;;;;;38.72;14.85;;;7.20;99.90;;;;;;4968914;29;20095;-90
2023/12/13 05:45:39;;;;;;;34.78;15.55;;;8.00;99.90;;;;;;4959219;29;20410;-90
2023/12/13 05:48:06;;;;;;;32.58;15.00;;;7.30;99.90;;;;;;4958289;29;20044;-90
2023/12/13 05:50:32;;;;;;;32.20;14.55;;;7.30;99.90;;;;;;4973997;29;20043;-90
2023/12/13 05:52:59;;;;;;;35.00;14.30;;;7.30;99.90;;;;;;4958175;29;20045;-89
2023/12/13 05:55:25;;;;;;;36.45;15.18;;;8.10;99.90;;;;;;4955714;29;20048;-90
2023/12/13 05:57:52;;;;;;;33.83;15.60;;;7.30;99.90;;;;;;4951866;29;20035;-90
2023/12/13 06:00:19;;;;;;;35.22;14.77;;;7.80;99.90;;;;;;4944900;29;20044;-89
2023/12/13 06:02:46;;;;;;;35.88;15.20;;;7.30;99.90;;;;;;4957587;29;20056;-90
2023/12/13 06:05:14;;;;;;;33.53;13.82;;;8.10;99.90;;;;;;4957948;29;20416;-90
2023/12/13 06:07:41;;;;;;;37.40;14.45;;;7.20;99.90;;;;;;4956837;29;20047;-90
2023/12/13 06:10:08;;;;;;;63.85;16.60;;;7.30;99.90;;;;;;4946589;29;20059;-89
2023/12/13 06:12:34;;;;;;;46.05;15.00;;;7.30;99.90;;;;;;4952182;29;20040;-90
2023/12/13 06:15:01;;;;;;;24.08;13.00;;;7.30;99.90;;;;;;4956675;29;20040;-90
2023/12/13 06:17:28;;;;;;;39.63;15.07;;;7.30;99.90;;;;;;4957794;29;20854;-90
2023/12/13 06:19:54;;;;;;;48.80;14.65;;;7.80;99.90;;;;;;4949225;29;20040;-90
2023/12/13 06:22:21;;;;;;;29.45;13.75;;;7.30;99.90;;;;;;4946368;29;20070;-90
2023/12/13 06:24:47;;;;;;;38.58;15.27;;;7.90;99.90;;;;;;4955723;29;20070;-89
2023/12/13 06:27:14;;;;;;;34.60;15.40;;;7.20;99.90;;;;;;4956174;29;20119;-90
2023/12/13 06:29:41;;;;;;;38.50;14.65;;;7.80;99.90;;;;;;4957136;29;20081;-90
2023/12/13 06:32:07;;;;;;;29.08;14.10;;;7.20;99.90;;;;;;4956819;29;20036;-89
2023/12/13 06:34:34;;;;;;;32.95;14.27;;;7.30;99.90;;;;;;4957304;29;20151;-90
2023/12/13 06:37:01;;;;;;;35.25;13.45;;;7.30;99.90;;;;;;4945111;29;20051;-90
2023/12/13 06:39:27;;;;;;;34.50;14.00;;;7.20;99.90;;;;;;4957682;29;20051;-90
2023/12/13 06:41:54;;;;;;;34.95;13.85;;;7.60;99.90;;;;;;4944597;29;20041;-89
2023/12/13 06:44:21;;;;;;;27.58;13.07;;;7.30;99.90;;;;;;4956801;29;20031;-90
2023/12/13 06:46:49;;;;;;;27.88;13.48;;;7.20;99.90;;;;;;4955982;29;20071;-90
2023/12/13 06:49:16;;;;;;;58.00;16.83;;;7.30;99.90;;;;;;4953118;29;20070;-90
2023/12/13 06:51:44;;;;;;;28.75;14.13;;;7.80;99.90;;;;;;4970764;29;20522;-89
2023/12/13 06:54:10;;;;;;;37.80;14.73;;;7.20;99.90;;;;;;4946796;29;20134;-89
2023/12/13 06:56:37;;;;;;;55.88;15.95;;;7.20;99.90;;;;;;4963168;29;20505;-89
2023/12/13 06:59:05;;;;;;;37.38;14.18;;;7.20;99.90;;;;;;4955970;29;20107;-90
2023/12/13 07:01:31;;;;;;;43.35;14.43;;;8.00;99.90;;;;;;4956436;29;20493;-89
2023/12/13 07:03:58;;;;;;;41.97;13.70;;;7.70;99.90;;;;;;4956670;29;20058;-89
2023/12/13 07:06:25;;;;;;;32.33;14.13;;;7.80;99.90;;;;;;4956493;29;20122;-89
2023/12/13 07:08:51;;;;;;;26.23;13.30;;;7.20;99.90;;;;;;4947233;29;20048;-89
2023/12/13 07:11:18;;;;;;;36.05;14.30;;;7.20;99.90;;;;;;4970003;29;20050;-89
2023/12/13 07:13:46;;;;;;;29.05;14.05;;;7.70;99.90;;;;;;4956315;29;20043;-90
2023/12/13 07:16:14;;;;;;;31.15;13.73;;;7.20;99.90;;;;;;4946394;29;20047;-89
2023/12/13 07:18:41;;;;;;;33.20;14.32;;;8.20;99.90;;;;;;4942171;29;20095;-90
2023/12/13 07:21:07;;;;;;;33.63;13.60;;;7.20;99.90;;;;;;4942891;29;20036;-90
2023/12/13 07:23:35;;;;;;;33.25;13.77;;;8.20;99.90;;;;;;4945744;29;20106;-90
2023/12/13 07:26:02;;;;;;;29.15;13.73;;;8.20;99.90;;;;;;4953894;29;20063;-89
2023/12/13 07:28:30;;;;;;;29.77;13.52;;;7.30;99.90;;;;;;4953134;29;20036;-90
2023/12/13 07:30:57;;;;;;;36.17;14.20;;;7.70;99.90;;;;;;4952279;29;20040;-89
2023/12/13 07:33:24;;;;;;;32.67;14.02;;;7.60;99.90;;;;;;4942358;29;20087;-88
2023/12/13 07:35:50;;;;;;;34.72;13.80;;;7.30;99.90;;;;;;4953763;29;20126;-88
2023/12/13 07:38:17;;;;;;;27.90;12.95;;;7.30;99.90;;;;;;4947718;29;20452;-88
2023/12/13 07:40:46;;;;;;;29.13;13.27;;;7.30;99.90;;;;;;4944832;29;20044;-89
2023/12/13 07:43:13;;;;;;;34.97;13.82;;;8.10;99.90;;;;;;4953194;29;20126;-89
2023/12/13 07:45:40;;;;;;;27.65;13.35;;;7.80;99.90;;;;;;4955100;29;20496;-89
2023/12/13 07:48:06;;;;;;;28.38;13.73;;;7.30;99.90;;;;;;4954571;29;20134;-89
2023/12/13 07:50:33;;;;;;;29.98;14.52;;;7.40;99.90;;;;;;4944286;29;20047;-89
2023/12/13 07:53:00;;;;;;;28.35;12.80;;;7.40;99.90;;;;;;4969816;29;20047;-89
2023/12/13 07:55:26;;;;;;;81.68;17.95;;;7.80;99.90;;;;;;4961885;29;20592;-89
2023/12/13 07:57:53;;;;;;;30.00;13.93;;;7.30;99.90;;;;;;4947286;29;20095;-89
2023/12/13 08:00:20;;;;;;;35.38;14.30;;;7.40;99.90;;;;;;4946142;29;20055;-89
2023/12/13 08:02:46;;;;;;;45.35;14.40;;;7.40;99.90;;;;;;4967347;29;20057;-89
2023/12/13 08:05:15;;;;;;;35.78;14.25;;;8.30;99.90;;;;;;4947394;29;20393;-90
2023/12/13 08:07:41;;;;;;;25.98;13.27;;;7.80;99.90;;;;;;4946657;29;20531;-88
2023/12/13 08:10:08;;;;;;;33.63;13.70;;;8.10;99.90;;;;;;4938053;29;20071;-88
2023/12/13 08:12:35;;;;;;;32.38;13.75;;;7.40;99.90;;;;;;4951307;29;20123;-89
2023/12/13 08:15:05;;;;;;;42.60;14.13;;;7.40;99.90;;;;;;4952845;29;20059;-88
2023/12/13 08:17:33;;;;;;;31.83;13.27;;;7.40;99.90;;;;;;4952315;29;20103;-88
2023/12/13 08:20:00;;;;;;;31.65;13.63;;;8.10;99.90;;;;;;4960660;29;20035;-88
2023/12/13 08:22:27;;;;;;;32.33;13.48;;;8.30;99.90;;;;;;4962527;29;20042;-88
2023/12/13 08:24:54;;;;;;;49.03;15.27;;;7.40;99.90;;;;;;4954916;29;20119;-88
2023/12/13 08:27:20;;;;;;;27.08;13.45;;;7.80;99.90;;;;;;4969479;29;20039;-87
2023/12/13 08:29:47;;;;;;;42.45;15.32;;;8.20;99.90;;;;;;4947373;29;20100;-87
2023/12/13 08:32:16;;;;;;;29.33;14.18;;;7.50;99.90;;;;;;4961404;29;20036;-87
2023/12/13 08:34:44;;;;;;;26.88;13.90;;;7.60;99.90;;;;;;4952208;29;20031;-87
2023/12/13 08:37:11;;;;;;;63.28;14.95;;;7.60;99.90;;;;;;4948747;29;20042;-87
2023/12/13 08:39:40;;;;;;;35.45;14.40;;;7.50;99.90;;;;;;4948895;29;20194;-87
2023/12/13 08:42:09;;;;;;;41.05;14.43;;;7.60;99.90;;;;;;4951569;29;20048;-87
2023/12/13 08:44:35;;;;;;;34.65;14.32;;;8.20;99.90;;;;;;4962480;29;20126;-87
2023/12/13 08:47:02;;;;;;;31.75;14.10;;;8.60;99.90;;;;;;4956875;29;20168;-88
2023/12/13 08:49:29;;;;;;;36.63;14.77;;;7.70;99.90;;;;;;4945403;29;20039;-87
2023/12/13 08:51:55;;;;;;;30.23;14.45;;;8.30;99.90;;;;;;4953481;29;20094;-86
2023/12/13 08:54:22;;;;;;;40.15;14.73;;;7.70;99.90;;;;;;4951044;29;20400;-86
2023/12/13 08:56:48;;;;;;;32.33;15.05;;;7.70;99.90;;;;;;4965900;29;20519;-87
2023/12/13 08:59:15;;;;;;;33.83;15.55;;;7.70;99.90;;;;;;4952476;29;20060;-86
2023/12/13 09:01:42;;;;;;;36.05;14.82;;;7.80;99.90;;;;;;4950174;29;20119;-86
2023/12/13 09:04:09;;;;;;;30.58;14.55;;;8.20;99.90;;;;;;4949836;29;20075;-86
2023/12/13 09:06:35;;;;;;;30.55;13.93;;;8.50;99.90;;;;;;4942872;29;20079;-86
2023/12/13 09:09:04;;;;;;;35.17;15.48;;;8.30;99.90;;;;;;4945558;29;20039;-86
2023/12/13 09:11:31;;;;;;;31.65;15.38;;;7.90;99.90;;;;;;4951280;29;20040;-85
2023/12/13 09:13:58;;;;;;;32.75;15.65;;;8.00;99.90;;;;;;4951625;29;20043;-86
2023/12/13 09:16:24;;;;;;;40.28;16.05;;;8.70;99.90;;;;;;4966697;29;20036;-89
2023/12/13 09:18:51;;;;;;;35.47;16.40;;;8.00;99.90;;;;;;4941981;29;20036;-90
2023/12/13 09:21:18;;;;;;;29.55;14.93;;;9.00;99.90;;;;;;4943542;29;21027;-88
2023/12/13 09:23:44;;;;;;;36.00;16.48;;;8.10;99.90;;;;;;4944204;29;20043;-87
2023/12/13 09:26:13;;;;;;;33.22;15.65;;;8.30;99.90;;;;;;4944990;29;20044;-86
2023/12/13 09:28:40;;;;;;;34.60;15.82;;;8.20;99.90;;;;;;4942950;29;20090;-87
2023/12/13 09:31:07;;;;;;;33.47;15.55;;;8.20;99.90;;;;;;4953350;29;20114;-87
2023/12/13 09:33:34;;;;;;;33.55;14.85;;;8.20;99.90;;;;;;4947126;29;20044;-86
2023/12/13 09:36:01;;;;;;;37.30;16.35;;;9.00;99.90;;;;;;4942373;29;20520;-87
2023/12/13 09:38:28;;;;;;;32.38;14.80;;;9.20;99.90;;;;;;4950407;29;20067;-88
2023/12/13 09:40:56;;;;;;;31.83;15.82;;;8.40;99.90;;;;;;4945720;29;20043;-86
2023/12/13 09:43:23;;;;;;;37.38;15.57;;;8.40;99.90;;;;;;4942244;29;20504;-87
2023/12/13 09:45:53;;;;;;;32.50;15.27;;;8.50;99.90;;;;;;4952448;29;20435;-85
2023/12/13 09:48:24;;;;;;;33.72;16.10;;;8.90;99.90;;;;;;4949564;29;20044;-86
2023/12/13 09:50:58;;;;;;;29.63;15.38;;;9.30;99.90;;;;;;4940158;29;20040;-85
2023/12/13 09:53:29;;;;;;;35.72;15.23;;;8.60;99.90;;;;;;4933376;29;20127;-85
2023/12/13 09:55:56;;;;;;;31.67;15.82;;;8.70;99.90;;;;;;4945830;29;20039;-86
2023/12/13 09:58:23;;;;;;;27.85;14.95;;;8.70;99.90;;;;;;4942086;29;20085;-86
2023/12/13 10:00:49;;;;;;;31.38;15.35;;;9.70;99.90;;;;;;4937374;29;20123;-86
2023/12/13 10:03:16;;;;;;;32.47;15.23;;;8.80;99.90;;;;;;4961335;29;20047;-86
2023/12/13 10:05:47;;;;;;;30.92;15.35;;;8.90;99.90;;;;;;4960254;29;20095;-87
2023/12/13 10:08:14;;;;;;;31.85;15.30;;;8.90;99.90;;;;;;4950315;29;20086;-87
2023/12/13 10:10:46;;;;;;;34.70;15.48;;;8.90;99.90;;;;;;4952478;29;20507;-85
2023/12/13 10:13:14;;;;;;;33.13;15.93;;;9.00;99.90;;;;;;4951835;29;20071;-85
2023/12/13 10:15:40;;;;;;;32.33;15.90;;;9.80;99.90;;;;;;4944672;29;20127;-86
2023/12/13 10:18:07;;;;;;;32.97;14.88;;;10.00;99.90;;;;;;4960789;29;20466;-85
2023/12/13 10:20:34;;;;;;;33.35;16.42;;;9.20;99.90;;;;;;4952406;29;20059;-86
2023/12/13 10:23:01;;;;;;;37.60;16.10;;;9.20;99.90;;;;;;4949844;29;20036;-86
2023/12/13 10:25:29;;;;;;;33.67;15.52;;;9.00;99.90;;;;;;4943097;29;20050;-86
2023/12/13 10:27:56;;;;;;;34.85;16.48;;;9.40;99.90;;;;;;4968383;29;20053;-86
2023/12/13 10:30:24;;;;;;;28.00;14.35;;;9.00;99.90;;;;;;4944127;29;20044;-88
2023/12/13 10:32:51;;;;;;;31.45;16.65;;;9.00;99.90;;;;;;4953443;29;20035;-87
2023/12/13 10:35:19;;;;;;;27.02;14.70;;;9.70;99.90;;;;;;4952887;29;20500;-86
2023/12/13 10:37:47;;;;;;;37.38;15.90;;;9.00;99.90;;;;;;4965484;29;20048;-87
2023/12/13 10:40:15;;;;;;;30.80;16.10;;;9.50;99.90;;;;;;4954230;29;20047;-86
2023/12/13 10:42:45;;;;;;;30.17;15.30;;;9.10;99.90;;;;;;4944800;29;20480;-86
2023/12/13 10:45:12;;;;;;;28.30;14.80;;;9.70;99.90;;;;;;4971923;29;20048;-87
2023/12/13 10:47:45;;;;;;;27.10;15.40;;;9.70;99.90;;;;;;4963636;29;20125;-87
2023/12/13 10:50:12;;;;;;;29.63;15.77;;;9.00;99.90;;;;;;4956009;29;20123;-89
2023/12/13 10:52:39;;;;;;;28.88;15.88;;;9.00;99.90;;;;;;4945964;29;20044;-89
2023/12/13 10:55:09;;;;;;;31.60;15.40;;;9.70;99.90;;;;;;4943395;29;20052;-87
2023/12/13 10:57:37;;;;;;;24.85;13.95;;;9.00;99.90;;;;;;4958053;29;20040;-86
2023/12/13 11:00:08;;;;;;;34.97;15.85;;;9.00;99.90;;;;;;4940489;29;20056;-86
2023/12/13 11:02:50;;;;;;;30.52;15.45;;;9.00;99.90;;;;;;4930997;29;20044;-86
2023/12/13 11:05:17;;;;;;;25.15;14.27;;;9.40;99.90;;;;;;4952535;29;20511;-84
2023/12/13 11:07:45;;;;;;;32.15;16.33;;;9.40;99.90;;;;;;4949524;29;20055;-84
2023/12/13 11:10:13;;;;;;;27.95;15.60;;;8.90;99.90;;;;;;4954049;29;20055;-83
2023/12/13 11:12:49;;;;;;;31.38;15.32;;;9.90;99.90;;;;;;4954609;29;20050;-83
2023/12/13 11:15:16;;;;;;;;;;;9.50;99.90;;;;;;4947873;29;20059;-83
2023/12/13 11:17:49;;;;;;;35.75;15.15;;;9.00;99.90;;;;;;4950053;29;19921;-84
2023/12/13 11:20:17;;;;;;;28.55;15.25;;;9.60;99.90;;;;;;4963088;29;20054;-83
2023/12/13 11:22:50;;;;;;;26.80;14.48;;;8.90;99.90;;;;;;4968434;29;20102;-83
2023/12/13 11:25:16;;;;;;;28.40;14.98;;;8.90;99.90;;;;;;4952330;29;20074;-83
2023/12/13 11:27:50;;;;;;;30.58;14.85;;;8.90;99.90;;;;;;4951116;29;20044;-82
2023/12/13 11:30:17;;;;;;;30.20;15.20;;;8.90;99.90;;;;;;4940438;29;20047;-82
2023/12/13 11:32:48;;;;;;;31.25;15.13;;;8.90;99.90;;;;;;4967807;29;20404;-82
2023/12/13 11:35:20;;;;;;;30.42;15.27;;;8.90;99.90;;;;;;4950426;29;20496;-82
2023/12/13 11:37:54;;;;;;;26.85;14.52;;;8.90;99.90;;;;;;4941299;29;20063;-83
2023/12/13 11:40:21;;;;;;;29.58;14.85;;;8.90;99.90;;;;;;4943182;29;20400;-83
2023/12/13 11:42:50;;;;;;;29.95;14.98;;;8.90;99.90;;;;;;4946524;29;20044;-83
2023/12/13 11:45:20;;;;;;;34.20;14.93;;;8.90;99.90;;;;;;4969399;29;20047;-83
2023/12/13 11:47:49;;;;;;;31.42;15.50;;;8.90;99.90;;;;;;4944663;29;20047;-83
2023/12/13 11:50:19;;;;;;;31.95;16.58;;;8.90;99.90;;;;;;4943341;29;20566;-83
2023/12/13 11:52:46;;;;;;;26.17;15.73;;;9.80;99.90;;;;;;4943366;29;20043;-83
2023/12/13 11:55:13;;;;;;;27.20;13.63;;;8.90;99.90;;;;;;4953962;29;20052;-83
2023/12/13 11:57:39;;;;;;;23.13;11.70;;;8.90;99.90;;;;;;4953602;29;20038;-82
2023/12/13 12:00:06;;;;;;;16.90;8.32;;;8.80;99.90;;;;;;4947535;29;20059;-82
2023/12/13 12:02:33;;;;;;;16.60;8.15;;;8.80;99.90;;;;;;4953619;29;20420;-83
2023/12/13 12:05:06;;;;;;;14.90;7.95;;;8.70;99.90;;;;;;4944448;29;20051;-82
2023/12/13 12:07:32;;;;;;;13.73;7.55;;;8.60;99.90;;;;;;4949065;29;20123;-82
2023/12/13 12:09:59;;;;;;;13.15;7.32;;;9.20;99.90;;;;;;4969181;29;20048;-82
2023/12/13 12:12:26;;;;;;;12.07;6.40;;;9.40;99.90;;;;;;4953415;29;20043;-83
2023/12/13 12:14:53;;;;;;;12.73;6.10;;;8.90;99.90;;;;;;4950444;29;20146;-83
2023/12/13 12:17:19;;;;;;;12.65;5.88;;;8.90;99.90;;;;;;4968894;29;20389;-82
2023/12/13 12:19:51;;;;;;;12.50;5.65;;;8.70;99.90;;;;;;4952489;29;20411;-82
2023/12/13 12:22:21;;;;;;;10.75;5.45;;;8.40;99.90;;;;;;4958784;29;20044;-83
2023/12/13 12:24:51;;;;;;;10.85;5.32;;;8.30;99.90;;;;;;4938810;29;20040;-83
2023/12/13 12:27:23;;;;;;;12.30;5.20;;;8.30;99.90;;;;;;4946014;29;20122;-83
2023/12/13 12:29:53;;;;;;;12.00;5.47;;;8.20;99.90;;;;;;4943989;29;20421;-83
2023/12/13 12:32:22;;;;;;;10.80;5.70;;;8.10;99.90;;;;;;4942123;29;20114;-83
2023/12/13 12:34:49;;;;;;;11.32;5.65;;;8.10;99.90;;;;;;4946234;29;20044;-83
2023/12/13 12:37:16;;;;;;;11.52;6.03;;;8.50;99.90;;;;;;4938613;29;20473;-83